Pompeys Pillar, Montana
Current Conditions -  °F | °C
As of 3:53 AM on Sunday 23 Nov 2014 (Local Time) from KBIL Reporting Station
Clear Clear  
Wind Chill: 25°   Ceiling: Unl
Heat Index: 36°   Visibility: 10mi
Dew Point: 15°   Wind: 20mph
Humidity: 43%   Direction: 290°WNW
Pressure: 29.75"   Gusts: 30mph
Location:  45.99°N, 107.96°W
Report Text: KBIL 231053Z 29017G26KT 10SM CLR 02/M09 A2975 RMK AO2 PK WND 30026/1049 SLP088 T00221094 $
Loading
Personal Weather Stations






























Interactive Weather Map New forecast layout! Learn more

10-Day Weather Forecast

Advertisements
Track Severe Weather on mobile